sensor_id;sensor_type;location;lat;lon;timestamp;pressure;altitude;pressure_sealevel;temperature;humidity
74474;BME280;62922;-6.168;106.796;2023-05-07T00:00:22;100887.16;;;31.20;65.21
74474;BME280;62922;-6.168;106.796;2023-05-07T00:02:48;100888.81;;;31.21;65.33
74474;BME280;62922;-6.168;106.796;2023-05-07T00:05:16;100888.31;;;31.19;65.50
74474;BME280;62922;-6.168;106.796;2023-05-07T00:07:42;100889.16;;;31.19;65.30
74474;BME280;62922;-6.168;106.796;2023-05-07T00:10:11;100887.16;;;31.20;65.25
74474;BME280;62922;-6.168;106.796;2023-05-07T00:12:38;100891.63;;;31.21;65.47
74474;BME280;62922;-6.168;106.796;2023-05-07T00:15:04;100894.44;;;31.21;65.68
74474;BME280;62922;-6.168;106.796;2023-05-07T00:17:30;100892.47;;;31.21;65.33
74474;BME280;62922;-6.168;106.796;2023-05-07T00:19:56;100890.47;;;31.22;65.62
74474;BME280;62922;-6.168;106.796;2023-05-07T00:22:22;100890.47;;;31.22;65.63
74474;BME280;62922;-6.168;106.796;2023-05-07T00:24:48;100892.13;;;31.23;65.49
74474;BME280;62922;-6.168;106.796;2023-05-07T00:27:15;100882.03;;;31.22;65.68
74474;BME280;62922;-6.168;106.796;2023-05-07T00:29:44;100898.59;;;31.23;65.66
74474;BME280;62922;-6.168;106.796;2023-05-07T00:32:09;100897.75;;;31.23;65.68
74474;BME280;62922;-6.168;106.796;2023-05-07T00:34:35;100901.41;;;31.23;66.19
74474;BME280;62922;-6.168;106.796;2023-05-07T00:37:01;100902.25;;;31.24;65.76
74474;BME280;62922;-6.168;106.796;2023-05-07T00:39:27;100902.25;;;31.24;66.08
74474;BME280;62922;-6.168;106.796;2023-05-07T00:41:53;100903.06;;;31.24;65.98
74474;BME280;62922;-6.168;106.796;2023-05-07T00:44:19;100903.06;;;31.24;65.95
74474;BME280;62922;-6.168;106.796;2023-05-07T00:46:45;100904.25;;;31.23;66.38
74474;BME280;62922;-6.168;106.796;2023-05-07T00:49:14;100907.91;;;31.24;66.58
74474;BME280;62922;-6.168;106.796;2023-05-07T00:51:40;100909.03;;;31.23;66.43
74474;BME280;62922;-6.168;106.796;2023-05-07T00:54:05;100911.84;;;31.23;66.50
74474;BME280;62922;-6.168;106.796;2023-05-07T00:56:34;100907.06;;;31.23;66.15
74474;BME280;62922;-6.168;106.796;2023-05-07T00:59:01;100905.06;;;31.24;66.20
74474;BME280;62922;-6.168;106.796;2023-05-07T01:01:27;100905.88;;;31.24;66.55
74474;BME280;62922;-6.168;106.796;2023-05-07T01:03:53;100897.75;;;31.23;66.28
74474;BME280;62922;-6.168;106.796;2023-05-07T01:06:20;100905.56;;;31.26;66.07
74474;BME280;62922;-6.168;106.796;2023-05-07T01:08:47;100897.13;;;31.26;66.25
74474;BME280;62922;-6.168;106.796;2023-05-07T01:11:13;100905.56;;;31.26;66.25
74474;BME280;62922;-6.168;106.796;2023-05-07T01:13:39;100898.75;;;31.27;66.49
74474;BME280;62922;-6.168;106.796;2023-05-07T01:16:06;100916.84;;;31.26;66.27
74474;BME280;62922;-6.168;106.796;2023-05-07T01:18:32;100918.50;;;31.27;66.50
74474;BME280;62922;-6.168;106.796;2023-05-07T01:20:58;100918.50;;;31.27;66.46
74474;BME280;62922;-6.168;106.796;2023-05-07T01:23:25;100916.50;;;31.27;66.38
74474;BME280;62922;-6.168;106.796;2023-05-07T01:25:56;100916.19;;;31.29;66.51
74474;BME280;62922;-6.168;106.796;2023-05-07T01:28:24;100923.78;;;31.28;66.30
74474;BME280;62922;-6.168;106.796;2023-05-07T01:30:52;100911.38;;;31.29;66.80
74474;BME280;62922;-6.168;106.796;2023-05-07T01:33:20;100905.72;;;31.29;66.32
74474;BME280;62922;-6.168;106.796;2023-05-07T01:35:50;100915.84;;;31.30;66.28
74474;BME280;62922;-6.168;106.796;2023-05-07T01:38:17;100904.91;;;31.29;66.76
74474;BME280;62922;-6.168;106.796;2023-05-07T01:40:43;100908.22;;;31.31;66.66
74474;BME280;62922;-6.168;106.796;2023-05-07T01:43:09;100908.72;;;31.33;66.28
74474;BME280;62922;-6.168;106.796;2023-05-07T01:45:36;100905.06;;;31.32;66.80
74474;BME280;62922;-6.168;106.796;2023-05-07T01:48:02;100903.91;;;31.33;66.37
74474;BME280;62922;-6.168;106.796;2023-05-07T01:50:29;100903.06;;;31.33;66.58
74474;BME280;62922;-6.168;106.796;2023-05-07T01:52:55;100903.56;;;31.35;66.56
74474;BME280;62922;-6.168;106.796;2023-05-07T01:55:21;100899.59;;;31.36;66.42
74474;BME280;62922;-6.168;106.796;2023-05-07T01:57:49;100903.56;;;31.35;66.68
74474;BME280;62922;-6.168;106.796;2023-05-07T02:00:15;100903.56;;;31.35;66.65
74474;BME280;62922;-6.168;106.796;2023-05-07T02:02:41;100897.09;;;31.34;66.74
74474;BME280;62922;-6.168;106.796;2023-05-07T02:05:07;100893.97;;;31.36;66.49
74474;BME280;62922;-6.168;106.796;2023-05-07T02:07:33;100887.97;;;31.37;66.23
74474;BME280;62922;-6.168;106.796;2023-05-07T02:09:59;100894.47;;;31.38;66.71
74474;BME280;62922;-6.168;106.796;2023-05-07T02:12:25;100887.69;;;31.39;66.24
74474;BME280;62922;-6.168;106.796;2023-05-07T02:14:50;100892.47;;;31.38;66.02
74474;BME280;62922;-6.168;106.796;2023-05-07T02:17:16;100895.31;;;31.38;66.17
74474;BME280;62922;-6.168;106.796;2023-05-07T02:19:42;100894.97;;;31.40;65.97
74474;BME280;62922;-6.168;106.796;2023-05-07T02:22:09;100898.63;;;31.40;65.78
74474;BME280;62922;-6.168;106.796;2023-05-07T02:24:42;100888.13;;;31.41;65.87
74474;BME280;62922;-6.168;106.796;2023-05-07T02:27:09;100895.47;;;31.42;65.95
74474;BME280;62922;-6.168;106.796;2023-05-07T02:29:35;100887.50;;;31.44;65.83
74474;BME280;62922;-6.168;106.796;2023-05-07T02:32:01;100894.78;;;31.45;65.95
74474;BME280;62922;-6.168;106.796;2023-05-07T02:34:27;100893.94;;;31.44;66.25
74474;BME280;62922;-6.168;106.796;2023-05-07T02:36:53;100888.78;;;31.46;65.63
74474;BME280;62922;-6.168;106.796;2023-05-07T02:39:19;100896.94;;;31.48;65.80
74474;BME280;62922;-6.168;106.796;2023-05-07T02:41:44;100887.31;;;31.49;65.60
74474;BME280;62922;-6.168;106.796;2023-05-07T02:44:10;100887.31;;;31.49;65.73
74474;BME280;62922;-6.168;106.796;2023-05-07T02:46:36;100886.13;;;31.50;65.91
74474;BME280;62922;-6.168;106.796;2023-05-07T02:49:02;100883.00;;;31.51;65.40
74474;BME280;62922;-6.168;106.796;2023-05-07T02:51:29;100885.81;;;31.51;66.01
74474;BME280;62922;-6.168;106.796;2023-05-07T02:53:55;100879.84;;;31.53;65.69
74474;BME280;62922;-6.168;106.796;2023-05-07T02:56:21;100885.13;;;31.54;65.58
74474;BME280;62922;-6.168;106.796;2023-05-07T02:58:47;100885.13;;;31.54;65.52
74474;BME280;62922;-6.168;106.796;2023-05-07T03:01:13;100889.59;;;31.55;65.35
74474;BME280;62922;-6.168;106.796;2023-05-07T03:03:40;100882.81;;;31.56;65.47
74474;BME280;62922;-6.168;106.796;2023-05-07T03:06:06;100883.66;;;31.57;65.68
74474;BME280;62922;-6.168;106.796;2023-05-07T03:08:32;100879.66;;;31.58;65.17
74474;BME280;62922;-6.168;106.796;2023-05-07T03:10:58;100876.84;;;31.58;65.51
74474;BME280;62922;-6.168;106.796;2023-05-07T03:13:24;100868.03;;;31.59;64.94
74474;BME280;62922;-6.168;106.796;2023-05-07T03:15:53;100866.88;;;31.60;65.51
74474;BME280;62922;-6.168;106.796;2023-05-07T03:18:18;100867.38;;;31.63;65.54
74474;BME280;62922;-6.168;106.796;2023-05-07T03:20:44;100857.72;;;31.63;65.14
74474;BME280;62922;-6.168;106.796;2023-05-07T03:23:10;100851.75;;;31.65;65.45
74474;BME280;62922;-6.168;106.796;2023-05-07T03:25:36;100857.38;;;31.65;65.36
74474;BME280;62922;-6.168;106.796;2023-05-07T03:28:02;100855.91;;;31.68;65.15
74474;BME280;62922;-6.168;106.796;2023-05-07T03:30:28;100861.19;;;31.69;64.73
74474;BME280;62922;-6.168;106.796;2023-05-07T03:32:56;100851.56;;;31.70;64.84
74474;BME280;62922;-6.168;106.796;2023-05-07T03:35:22;100844.75;;;31.71;64.77
74474;BME280;62922;-6.168;106.796;2023-05-07T03:37:48;100840.44;;;31.74;65.15
74474;BME280;62922;-6.168;106.796;2023-05-07T03:40:14;100837.28;;;31.75;64.95
74474;BME280;62922;-6.168;106.796;2023-05-07T03:42:40;100829.31;;;31.77;64.32
74474;BME280;62922;-6.168;106.796;2023-05-07T03:45:06;100829.81;;;31.79;64.34
74474;BME280;62922;-6.168;106.796;2023-05-07T03:47:32;100825.44;;;31.82;64.44
74474;BME280;62922;-6.168;106.796;2023-05-07T03:49:58;100827.94;;;31.83;64.76
74474;BME280;62922;-6.168;106.796;2023-05-07T03:52:24;100821.63;;;31.86;64.75
74474;BME280;62922;-6.168;106.796;2023-05-07T03:54:52;100817.00;;;31.90;64.24
74474;BME280;62922;-6.168;106.796;2023-05-07T03:57:18;100813.47;;;31.93;64.22
74474;BME280;62922;-6.168;106.796;2023-05-07T03:59:44;100806.66;;;31.94;63.83
74474;BME280;62922;-6.168;106.796;2023-05-07T04:02:10;100814.13;;;31.99;63.54
74474;BME280;62922;-6.168;106.796;2023-05-07T04:04:36;100799.66;;;32.00;63.42
74474;BME280;62922;-6.168;106.796;2023-05-07T04:07:01;100804.31;;;32.05;63.19
74474;BME280;62922;-6.168;106.796;2023-05-07T04:09:28;100797.47;;;32.06;63.37
74474;BME280;62922;-6.168;106.796;2023-05-07T04:11:54;100794.28;;;32.07;63.04
74474;BME280;62922;-6.168;106.796;2023-05-07T04:14:20;100786.31;;;32.09;63.54
74474;BME280;62922;-6.168;106.796;2023-05-07T04:16:46;100777.50;;;32.11;63.40
74474;BME280;62922;-6.168;106.796;2023-05-07T04:19:11;100769.16;;;32.14;62.77
74474;BME280;62922;-6.168;106.796;2023-05-07T04:21:40;100769.66;;;32.16;62.88
74474;BME280;62922;-6.168;106.796;2023-05-07T04:24:06;100760.84;;;32.18;63.03
74474;BME280;62922;-6.168;106.796;2023-05-07T04:26:31;100750.03;;;32.20;62.89
74474;BME280;62922;-6.168;106.796;2023-05-07T04:28:58;100745.34;;;32.24;62.85
74474;BME280;62922;-6.168;106.796;2023-05-07T04:31:24;100731.38;;;32.27;62.20
74474;BME280;62922;-6.168;106.796;2023-05-07T04:33:50;100729.03;;;32.29;61.74
74474;BME280;62922;-6.168;106.796;2023-05-07T04:36:18;100721.03;;;32.31;62.02
74474;BME280;62922;-6.168;106.796;2023-05-07T04:38:44;100722.69;;;32.32;61.80
74474;BME280;62922;-6.168;106.796;2023-05-07T04:41:12;100716.22;;;32.32;61.93
74474;BME280;62922;-6.168;106.796;2023-05-07T04:43:38;100713.41;;;32.32;61.43
74474;BME280;62922;-6.168;106.796;2023-05-07T04:46:04;100715.88;;;32.33;61.71
74474;BME280;62922;-6.168;106.796;2023-05-07T04:48:32;100706.22;;;32.34;61.42
74474;BME280;62922;-6.168;106.796;2023-05-07T04:50:58;100702.13;;;32.32;62.37
74474;BME280;62922;-6.168;106.796;2023-05-07T04:53:24;100701.75;;;32.33;61.79
74474;BME280;62922;-6.168;106.796;2023-05-07T04:55:54;100707.41;;;32.33;62.00
74474;BME280;62922;-6.168;106.796;2023-05-07T04:58:21;100702.59;;;32.34;62.58
74474;BME280;62922;-6.168;106.796;2023-05-07T05:00:46;100700.09;;;32.32;63.29
74474;BME280;62922;-6.168;106.796;2023-05-07T05:03:12;100696.94;;;32.34;62.68
74474;BME280;62922;-6.168;106.796;2023-05-07T05:05:38;100696.47;;;32.32;63.82
74474;BME280;62922;-6.168;106.796;2023-05-07T05:08:04;100708.56;;;32.32;63.54
74474;BME280;62922;-6.168;106.796;2023-05-07T05:10:33;100697.63;;;32.31;63.27
74474;BME280;62922;-6.168;106.796;2023-05-07T05:12:58;100699.28;;;32.32;63.87
74474;BME280;62922;-6.168;106.796;2023-05-07T05:15:24;100702.13;;;32.32;64.80
74474;BME280;62922;-6.168;106.796;2023-05-07T05:17:50;100695.63;;;32.31;64.54
74474;BME280;62922;-6.168;106.796;2023-05-07T05:20:16;100694.44;;;32.32;64.15
74474;BME280;62922;-6.168;106.796;2023-05-07T05:22:42;100683.63;;;32.34;64.58
74474;BME280;62922;-6.168;106.796;2023-05-07T05:25:10;100689.28;;;32.34;65.38
74474;BME280;62922;-6.168;106.796;2023-05-07T05:27:36;100677.66;;;32.36;64.47
74474;BME280;62922;-6.168;106.796;2023-05-07T05:30:03;100682.13;;;32.37;64.05
74474;BME280;62922;-6.168;106.796;2023-05-07T05:32:29;100676.13;;;32.38;64.50
74474;BME280;62922;-6.168;106.796;2023-05-07T05:34:54;100676.13;;;32.38;64.64
74474;BME280;62922;-6.168;106.796;2023-05-07T05:37:21;100670.47;;;32.38;64.92
74474;BME280;62922;-6.168;106.796;2023-05-07T05:39:46;100666.16;;;32.41;64.47
74474;BME280;62922;-6.168;106.796;2023-05-07T05:42:12;100666.97;;;32.41;64.65
74474;BME280;62922;-6.168;106.796;2023-05-07T05:44:38;100660.16;;;32.42;65.20
74474;BME280;62922;-6.168;106.796;2023-05-07T05:47:04;100644.06;;;32.43;64.64
74474;BME280;62922;-6.168;106.796;2023-05-07T05:49:30;100656.66;;;32.45;64.65
74474;BME280;62922;-6.168;106.796;2023-05-07T05:51:56;100642.53;;;32.45;64.64
74474;BME280;62922;-6.168;106.796;2023-05-07T05:54:22;100631.69;;;32.47;64.84
74474;BME280;62922;-6.168;106.796;2023-05-07T05:56:48;100625.69;;;32.49;64.22
74474;BME280;62922;-6.168;106.796;2023-05-07T05:59:14;100616.91;;;32.50;64.45
74474;BME280;62922;-6.168;106.796;2023-05-07T06:01:40;100617.34;;;32.52;64.38
74474;BME280;62922;-6.168;106.796;2023-05-07T06:04:06;100613.38;;;32.53;64.04
74474;BME280;62922;-6.168;106.796;2023-05-07T06:06:32;100611.03;;;32.55;64.15
74474;BME280;62922;-6.168;106.796;2023-05-07T06:08:58;100606.22;;;32.56;64.32
74474;BME280;62922;-6.168;106.796;2023-05-07T06:11:24;100606.34;;;32.60;64.94
74474;BME280;62922;-6.168;106.796;2023-05-07T06:13:50;100596.66;;;32.61;64.91
74474;BME280;62922;-6.168;106.796;2023-05-07T06:16:16;100587.03;;;32.62;64.87
74474;BME280;62922;-6.168;106.796;2023-05-07T06:18:45;100591.50;;;32.63;64.38
74474;BME280;62922;-6.168;106.796;2023-05-07T06:21:12;100582.66;;;32.64;64.78
74474;BME280;62922;-6.168;106.796;2023-05-07T06:23:38;100586.78;;;32.67;64.05
74474;BME280;62922;-6.168;106.796;2023-05-07T06:26:06;100584.44;;;32.69;64.39
74474;BME280;62922;-6.168;106.796;2023-05-07T06:28:32;100580.44;;;32.70;64.29
74474;BME280;62922;-6.168;106.796;2023-05-07T06:31:22;100583.72;;;32.72;63.79
74474;BME280;62922;-6.168;106.796;2023-05-07T06:33:47;100587.03;;;32.74;64.46
74474;BME280;62922;-6.168;106.796;2023-05-07T06:36:16;100583.38;;;32.73;63.87
74474;BME280;62922;-6.168;106.796;2023-05-07T06:38:41;100577.38;;;32.75;63.92
74474;BME280;62922;-6.168;106.796;2023-05-07T06:41:07;100577.03;;;32.76;64.52
74474;BME280;62922;-6.168;106.796;2023-05-07T06:43:33;100569.38;;;32.77;64.38
74474;BME280;62922;-6.168;106.796;2023-05-07T06:45:59;100560.88;;;32.77;64.33
74474;BME280;62922;-6.168;106.796;2023-05-07T06:48:25;100553.25;;;32.77;64.05
74474;BME280;62922;-6.168;106.796;2023-05-07T06:50:51;100546.41;;;32.78;64.32
74474;BME280;62922;-6.168;106.796;2023-05-07T06:53:17;100538.75;;;32.79;63.70
74474;BME280;62922;-6.168;106.796;2023-05-07T06:55:43;100521.81;;;32.79;63.92
74474;BME280;62922;-6.168;106.796;2023-05-07T06:58:08;100523.47;;;32.80;63.87
74474;BME280;62922;-6.168;106.796;2023-05-07T07:00:34;100523.47;;;32.80;63.36
74474;BME280;62922;-6.168;106.796;2023-05-07T07:03:00;100521.44;;;32.80;63.06
74474;BME280;62922;-6.168;106.796;2023-05-07T07:05:26;100521.91;;;32.82;63.67
74474;BME280;62922;-6.168;106.796;2023-05-07T07:07:52;100517.47;;;32.81;63.53
74474;BME280;62922;-6.168;106.796;2023-05-07T07:10:21;100506.16;;;32.81;63.31
74474;BME280;62922;-6.168;106.796;2023-05-07T07:12:46;100506.16;;;32.81;63.26
74474;BME280;62922;-6.168;106.796;2023-05-07T07:15:14;100513.91;;;32.84;62.67
74474;BME280;62922;-6.168;106.796;2023-05-07T07:17:40;100515.56;;;32.85;62.88
74474;BME280;62922;-6.168;106.796;2023-05-07T07:20:06;100514.75;;;32.85;62.83
74474;BME280;62922;-6.168;106.796;2023-05-07T07:22:35;100498.63;;;32.85;62.62
74474;BME280;62922;-6.168;106.796;2023-05-07T07:25:01;100492.97;;;32.85;62.19
74474;BME280;62922;-6.168;106.796;2023-05-07T07:27:27;100495.06;;;32.88;62.30
74474;BME280;62922;-6.168;106.796;2023-05-07T07:29:52;100493.09;;;32.89;61.51
74474;BME280;62922;-6.168;106.796;2023-05-07T07:32:18;100492.59;;;32.87;61.77
74474;BME280;62922;-6.168;106.796;2023-05-07T07:34:44;100492.59;;;32.87;62.19
74474;BME280;62922;-6.168;106.796;2023-05-07T07:37:10;100497.06;;;32.88;62.26
74474;BME280;62922;-6.168;106.796;2023-05-07T07:39:36;100498.72;;;32.89;61.55
74474;BME280;62922;-6.168;106.796;2023-05-07T07:42:03;100497.91;;;32.88;61.56
74474;BME280;62922;-6.168;106.796;2023-05-07T07:44:32;100504.38;;;32.89;61.30
74474;BME280;62922;-6.168;106.796;2023-05-07T07:47:00;100504.03;;;32.90;62.06
74474;BME280;62922;-6.168;106.796;2023-05-07T07:49:26;100518.63;;;32.92;61.46
74474;BME280;62922;-6.168;106.796;2023-05-07T07:51:52;100524.78;;;32.94;61.98
74474;BME280;62922;-6.168;106.796;2023-05-07T07:54:18;100528.09;;;32.96;61.83
74474;BME280;62922;-6.168;106.796;2023-05-07T07:56:44;100525.25;;;32.96;61.92
74474;BME280;62922;-6.168;106.796;2023-05-07T07:59:10;100526.44;;;32.95;61.41
74474;BME280;62922;-6.168;106.796;2023-05-07T08:01:35;100528.09;;;32.96;61.91
74474;BME280;62922;-6.168;106.796;2023-05-07T08:04:01;100525.59;;;32.95;61.57
74474;BME280;62922;-6.168;106.796;2023-05-07T08:06:28;100519.13;;;32.94;61.46
74474;BME280;62922;-6.168;106.796;2023-05-07T08:08:59;100518.78;;;32.96;61.93
74474;BME280;62922;-6.168;106.796;2023-05-07T08:11:25;100524.44;;;32.96;61.19
74474;BME280;62922;-6.168;106.796;2023-05-07T08:13:53;100524.91;;;32.98;61.30
74474;BME280;62922;-6.168;106.796;2023-05-07T08:16:19;100528.56;;;32.98;61.90
74474;BME280;62922;-6.168;106.796;2023-05-07T08:18:45;100520.88;;;32.99;61.34
74474;BME280;62922;-6.168;106.796;2023-05-07T08:21:11;100526.53;;;32.99;61.92
74474;BME280;62922;-6.168;106.796;2023-05-07T08:23:37;100543.50;;;32.99;61.87
74474;BME280;62922;-6.168;106.796;2023-05-07T08:26:03;100536.69;;;33.00;61.71
74474;BME280;62922;-6.168;106.796;2023-05-07T08:28:29;100551.63;;;33.00;61.88
74474;BME280;62922;-6.168;106.796;2023-05-07T08:30:55;100563.75;;;33.01;61.96
74474;BME280;62922;-6.168;106.796;2023-05-07T08:33:22;100567.78;;;33.00;61.92
74474;BME280;62922;-6.168;106.796;2023-05-07T08:35:47;100569.41;;;33.01;62.14
74474;BME280;62922;-6.168;106.796;2023-05-07T08:38:13;100570.63;;;33.00;62.11
74474;BME280;62922;-6.168;106.796;2023-05-07T08:40:39;100570.97;;;32.98;62.19
74474;BME280;62922;-6.168;106.796;2023-05-07T08:43:08;100576.94;;;32.97;61.72
74474;BME280;62922;-6.168;106.796;2023-05-07T08:45:34;100585.78;;;32.95;62.22
74474;BME280;62922;-6.168;106.796;2023-05-07T08:48:02;100580.50;;;32.94;61.75
74474;BME280;62922;-6.168;106.796;2023-05-07T08:50:28;100593.44;;;32.95;62.02
74474;BME280;62922;-6.168;106.796;2023-05-07T08:52:55;100590.13;;;32.93;62.56
74474;BME280;62922;-6.168;106.796;2023-05-07T08:55:22;100595.78;;;32.93;62.60
74474;BME280;62922;-6.168;106.796;2023-05-07T08:57:48;100593.28;;;32.91;62.44
74474;BME280;62922;-6.168;106.796;2023-05-07T09:00:14;100586.84;;;32.91;62.19
74474;BME280;62922;-6.168;106.796;2023-05-07T09:02:40;100578.69;;;32.89;62.88
74474;BME280;62922;-6.168;106.796;2023-05-07T09:05:06;100588.34;;;32.88;62.52
74474;BME280;62922;-6.168;106.796;2023-05-07T09:07:32;100577.03;;;32.88;63.00
74474;BME280;62922;-6.168;106.796;2023-05-07T09:09:58;100580.69;;;32.89;63.13
74474;BME280;62922;-6.168;106.796;2023-05-07T09:12:26;100572.91;;;32.86;63.28
74474;BME280;62922;-6.168;106.796;2023-05-07T09:14:52;100578.91;;;32.84;63.26
74474;BME280;62922;-6.168;106.796;2023-05-07T09:17:18;100594.25;;;32.83;62.99
74474;BME280;62922;-6.168;106.796;2023-05-07T09:19:44;100605.91;;;32.82;63.39
74474;BME280;62922;-6.168;106.796;2023-05-07T09:22:11;100622.84;;;32.82;63.26
74474;BME280;62922;-6.168;106.796;2023-05-07T09:24:39;100623.19;;;32.80;63.61
74474;BME280;62922;-6.168;106.796;2023-05-07T09:27:06;100635.69;;;32.79;63.56
74474;BME280;62922;-6.168;106.796;2023-05-07T09:29:32;100626.38;;;32.79;63.28
74474;BME280;62922;-6.168;106.796;2023-05-07T09:32:03;100627.56;;;32.78;63.28
74474;BME280;62922;-6.168;106.796;2023-05-07T09:34:29;100635.19;;;32.77;63.25
74474;BME280;62922;-6.168;106.796;2023-05-07T09:36:56;100631.53;;;32.77;63.21
74474;BME280;62922;-6.168;106.796;2023-05-07T09:39:24;100640.03;;;32.77;63.04
74474;BME280;62922;-6.168;106.796;2023-05-07T09:41:50;100642.84;;;32.77;63.11
74474;BME280;62922;-6.168;106.796;2023-05-07T09:44:20;100638.75;;;32.74;63.56
74474;BME280;62922;-6.168;106.796;2023-05-07T09:46:46;100655.69;;;32.74;63.49
74474;BME280;62922;-6.168;106.796;2023-05-07T09:49:16;100672.66;;;32.74;63.77
74474;BME280;62922;-6.168;106.796;2023-05-07T09:51:47;100682.28;;;32.73;63.31
74474;BME280;62922;-6.168;106.796;2023-05-07T09:54:14;100675.00;;;32.72;63.93
74474;BME280;62922;-6.168;106.796;2023-05-07T09:56:40;100679.81;;;32.72;63.21
74474;BME280;62922;-6.168;106.796;2023-05-07T09:59:07;100678.97;;;32.71;63.24
74474;BME280;62922;-6.168;106.796;2023-05-07T10:01:36;100682.16;;;32.70;63.71
74474;BME280;62922;-6.168;106.796;2023-05-07T10:04:02;100691.81;;;32.69;63.09
74474;BME280;62922;-6.168;106.796;2023-05-07T10:06:30;100696.63;;;32.68;63.34
74474;BME280;62922;-6.168;106.796;2023-05-07T10:08:56;100698.63;;;32.68;63.21
74474;BME280;62922;-6.168;106.796;2023-05-07T10:11:22;100702.66;;;32.67;63.30
74474;BME280;62922;-6.168;106.796;2023-05-07T10:13:48;100712.28;;;32.66;63.39
74474;BME280;62922;-6.168;106.796;2023-05-07T10:16:15;100716.78;;;32.67;63.27
74474;BME280;62922;-6.168;106.796;2023-05-07T10:18:42;100715.09;;;32.66;63.19
74474;BME280;62922;-6.168;106.796;2023-05-07T10:21:11;100715.09;;;32.66;63.83
74474;BME280;62922;-6.168;106.796;2023-05-07T10:23:37;100716.66;;;32.63;63.42
74474;BME280;62922;-6.168;106.796;2023-05-07T10:26:05;100721.47;;;32.63;63.43
74474;BME280;62922;-6.168;106.796;2023-05-07T10:28:34;100706.84;;;32.61;63.29
74474;BME280;62922;-6.168;106.796;2023-05-07T10:31:08;100700.03;;;32.62;63.27
74474;BME280;62922;-6.168;106.796;2023-05-07T10:33:37;100697.53;;;32.60;63.91
74474;BME280;62922;-6.168;106.796;2023-05-07T10:36:04;100698.72;;;32.59;63.29
74474;BME280;62922;-6.168;106.796;2023-05-07T10:38:31;100686.13;;;32.56;63.47
74474;BME280;62922;-6.168;106.796;2023-05-07T10:40:58;100679.19;;;32.54;63.22
74474;BME280;62922;-6.168;106.796;2023-05-07T10:43:23;100667.03;;;32.53;63.85
74474;BME280;62922;-6.168;106.796;2023-05-07T10:49:05;100658.09;;;32.51;63.56
74474;BME280;62922;-6.168;106.796;2023-05-07T10:51:22;100665.72;;;32.51;63.91
74474;BME280;62922;-6.168;106.796;2023-05-07T10:53:48;100652.78;;;32.50;63.51
74474;BME280;62922;-6.168;106.796;2023-05-07T10:58:39;100659.28;;;32.50;63.37
74474;BME280;62922;-6.168;106.796;2023-05-07T11:01:05;100651.47;;;32.47;63.32
74474;BME280;62922;-6.168;106.796;2023-05-07T11:03:31;100658.31;;;32.46;63.26
74474;BME280;62922;-6.168;106.796;2023-05-07T11:11:26;100678.75;;;32.43;63.93
74474;BME280;62922;-6.168;106.796;2023-05-07T11:14:05;100684.41;;;32.43;63.51
74474;BME280;62922;-6.168;106.796;2023-05-07T11:16:31;100676.28;;;32.42;63.92
74474;BME280;62922;-6.168;106.796;2023-05-07T11:18:58;100670.97;;;32.40;63.53
74474;BME280;62922;-6.168;106.796;2023-05-07T11:24:13;100697.09;;;32.37;63.59
74474;BME280;62922;-6.168;106.796;2023-05-07T11:26:41;100700.25;;;32.36;63.74
74474;BME280;62922;-6.168;106.796;2023-05-07T11:29:12;100704.25;;;32.35;63.89
74474;BME280;62922;-6.168;106.796;2023-05-07T11:31:38;100714.38;;;32.36;63.53
74474;BME280;62922;-6.168;106.796;2023-05-07T11:34:05;100724.84;;;32.35;64.04
74474;BME280;62922;-6.168;106.796;2023-05-07T11:36:31;100719.53;;;32.34;64.19
74474;BME280;62922;-6.168;106.796;2023-05-07T11:38:57;100732.81;;;32.33;64.00
74474;BME280;62922;-6.168;106.796;2023-05-07T11:41:35;100731.50;;;32.31;63.51
74474;BME280;62922;-6.168;106.796;2023-05-07T11:44:02;100741.66;;;32.32;63.63
74474;BME280;62922;-6.168;106.796;2023-05-07T11:46:31;100738.34;;;32.30;63.79
74474;BME280;62922;-6.168;106.796;2023-05-07T11:48:57;100745.16;;;32.29;63.53
74474;BME280;62922;-6.168;106.796;2023-05-07T11:51:24;100747.97;;;32.29;64.01
74474;BME280;62922;-6.168;106.796;2023-05-07T11:53:51;100752.81;;;32.28;63.52
74474;BME280;62922;-6.168;106.796;2023-05-07T11:56:17;100753.63;;;32.29;63.19
74474;BME280;62922;-6.168;106.796;2023-05-07T11:58:44;100751.97;;;32.28;63.82
74474;BME280;62922;-6.168;106.796;2023-05-07T12:01:13;100758.47;;;32.28;63.83
74474;BME280;62922;-6.168;106.796;2023-05-07T12:03:40;100771.75;;;32.28;63.96
74474;BME280;62922;-6.168;106.796;2023-05-07T12:06:10;100775.72;;;32.27;63.48
74474;BME280;62922;-6.168;106.796;2023-05-07T12:08:37;100784.53;;;32.25;64.04
74474;BME280;62922;-6.168;106.796;2023-05-07T12:11:03;100783.03;;;32.28;63.44
74474;BME280;62922;-6.168;106.796;2023-05-07T12:13:32;100794.69;;;32.26;63.93
74474;BME280;62922;-6.168;106.796;2023-05-07T12:15:58;100796.66;;;32.26;64.03
74474;BME280;62922;-6.168;106.796;2023-05-07T12:18:24;100794.19;;;32.24;64.05
74474;BME280;62922;-6.168;106.796;2023-05-07T12:20:50;100793.38;;;32.24;63.86
74474;BME280;62922;-6.168;106.796;2023-05-07T12:23:17;100797.03;;;32.24;63.87
74474;BME280;62922;-6.168;106.796;2023-05-07T12:25:43;100811.50;;;32.23;63.86
74474;BME280;62922;-6.168;106.796;2023-05-07T12:28:29;100798.16;;;32.23;64.44
74474;BME280;62922;-6.168;106.796;2023-05-07T12:30:56;100807.47;;;32.24;64.12
74474;BME280;62922;-6.168;106.796;2023-05-07T12:33:24;100805.50;;;32.24;64.45
74474;BME280;62922;-6.168;106.796;2023-05-07T12:35:50;100805.00;;;32.22;64.61
74474;BME280;62922;-6.168;106.796;2023-05-07T12:38:18;100811.84;;;32.21;64.42
74474;BME280;62922;-6.168;106.796;2023-05-07T12:40:47;100816.66;;;32.21;64.82